createdAt,value
2022-09-27T00:00:43.405Z,99.99
2022-09-27T00:01:43.497Z,99.99
2022-09-27T00:02:43.354Z,99.99
2022-09-27T00:03:43.349Z,99.99
2022-09-27T00:04:43.283Z,99.99
2022-09-27T00:05:43.295Z,99.99
2022-09-27T00:06:43.274Z,99.99
2022-09-27T00:07:43.274Z,99.99
2022-09-27T00:08:43.264Z,99.99
2022-09-27T00:09:43.254Z,99.99
2022-09-27T00:10:43.241Z,99.99
2022-09-27T00:11:43.244Z,99.99
2022-09-27T00:12:43.232Z,99.99
2022-09-27T00:13:43.573Z,99.99
2022-09-27T00:14:43.210Z,99.99
2022-09-27T00:15:43.293Z,99.99
2022-09-27T00:16:43.191Z,99.99
2022-09-27T00:17:43.220Z,99.99
2022-09-27T00:18:43.203Z,99.99
2022-09-27T00:19:43.196Z,99.99
2022-09-27T00:20:43.168Z,99.99
2022-09-27T00:21:43.160Z,99.99
2022-09-27T00:22:43.170Z,99.99
2022-09-27T00:23:43.349Z,99.99
2022-09-27T00:24:43.150Z,99.99
2022-09-27T00:25:43.138Z,99.99
2022-09-27T00:26:43.124Z,99.99
2022-09-27T00:27:43.161Z,99.99
2022-09-27T00:28:43.119Z,99.99
2022-09-27T00:29:43.118Z,99.99
2022-09-27T00:30:43.163Z,99.99
2022-09-27T00:31:43.198Z,99.99
2022-09-27T00:32:43.120Z,99.99
2022-09-27T00:33:43.086Z,99.99
2022-09-27T00:34:43.070Z,99.99
2022-09-27T00:35:43.078Z,99.99
2022-09-27T00:36:43.059Z,99.99
2022-09-27T00:37:43.075Z,99.99
2022-09-27T00:38:43.050Z,99.99
2022-09-27T00:39:43.057Z,99.99
2022-09-27T00:40:43.119Z,99.99
2022-09-27T00:41:43.037Z,99.99
2022-09-27T00:42:43.066Z,99.99
2022-09-27T00:43:43.022Z,99.99
2022-09-27T00:44:43.006Z,99.99
2022-09-27T00:45:43.028Z,99.99
2022-09-27T00:46:43.056Z,99.99
2022-09-27T00:47:43.031Z,99.99
2022-09-27T00:48:43.104Z,99.99
2022-09-27T00:49:43.006Z,99.99
2022-09-27T00:50:43.124Z,99.99
2022-09-27T00:51:42.963Z,99.99
2022-09-27T00:52:42.985Z,99.99
2022-09-27T00:53:43.554Z,99.99
2022-09-27T00:54:42.944Z,99.99
2022-09-27T00:55:42.934Z,99.99
2022-09-27T00:56:42.923Z,99.99
2022-09-27T00:57:42.941Z,99.99
2022-09-27T00:58:42.927Z,99.99
2022-09-27T00:59:42.925Z,99.99
2022-09-27T01:00:43.133Z,99.99
2022-09-27T01:01:43.320Z,99.99
2022-09-27T01:02:43.085Z,99.99
2022-09-27T01:03:43.115Z,99.99
2022-09-27T01:04:42.875Z,99.99
2022-09-27T01:05:42.879Z,99.99
2022-09-27T01:06:42.863Z,99.99
2022-09-27T01:07:42.879Z,99.99
2022-09-27T01:08:42.872Z,99.99
2022-09-27T01:09:42.851Z,99.99
2022-09-27T01:10:42.831Z,99.99
2022-09-27T01:11:42.841Z,99.99
2022-09-27T01:12:42.839Z,99.99
2022-09-27T01:13:42.820Z,99.99
2022-09-27T01:14:43.078Z,99.99
2022-09-27T01:15:42.873Z,99.99
2022-09-27T01:16:42.821Z,99.99
2022-09-27T01:17:42.838Z,99.99
2022-09-27T01:18:42.985Z,99.99
2022-09-27T01:19:42.817Z,99.99
2022-09-27T01:20:42.789Z,99.99
2022-09-27T01:21:42.921Z,99.99
2022-09-27T01:22:42.760Z,99.99
2022-09-27T01:23:42.768Z,99.99
2022-09-27T01:24:42.738Z,99.99
2022-09-27T01:25:42.738Z,99.99
2022-09-27T01:26:42.749Z,99.99
2022-09-27T01:27:42.725Z,99.99
2022-09-27T01:28:42.747Z,99.99
2022-09-27T01:29:42.727Z,99.99
2022-09-27T01:30:42.809Z,99.99
2022-09-27T01:31:42.696Z,99.99
2022-09-27T01:32:42.794Z,99.99
2022-09-27T01:33:42.779Z,99.99
2022-09-27T01:34:42.749Z,99.99
2022-09-27T01:35:42.686Z,99.99
2022-09-27T01:36:42.846Z,99.99
2022-09-27T01:37:42.656Z,99.99
2022-09-27T01:38:42.806Z,99.99
2022-09-27T01:39:42.657Z,99.99
2022-09-27T01:40:42.798Z,99.99
2022-09-27T01:41:42.626Z,99.99
2022-09-27T01:42:42.753Z,99.99
2022-09-27T01:43:42.635Z,99.99
2022-09-27T01:44:42.804Z,99.99
2022-09-27T01:45:42.642Z,99.99
2022-09-27T01:46:42.746Z,99.99
2022-09-27T01:47:42.603Z,99.99
2022-09-27T01:48:42.658Z,99.99
2022-09-27T01:49:42.604Z,99.99
2022-09-27T01:50:42.563Z,99.99
2022-09-27T01:51:42.923Z,99.99
2022-09-27T01:52:42.552Z,99.99
2022-09-27T01:53:42.566Z,99.99
2022-09-27T01:54:42.543Z,99.99
2022-09-27T01:55:42.542Z,99.99
2022-09-27T01:56:42.521Z,99.99
2022-09-27T01:57:42.522Z,99.99
2022-09-27T01:58:42.613Z,99.99
2022-09-27T01:59:42.613Z,99.99
2022-09-27T02:00:42.594Z,99.99
2022-09-27T02:01:42.598Z,99.99
2022-09-27T02:02:42.579Z,99.99
2022-09-27T02:03:42.651Z,99.99
2022-09-27T02:04:42.471Z,99.99
2022-09-27T02:05:42.471Z,99.99
2022-09-27T02:06:42.473Z,99.99
2022-09-27T02:07:42.630Z,99.99
2022-09-27T02:08:42.449Z,99.99
2022-09-27T02:09:43.904Z,99.99
2022-09-27T02:10:42.431Z,99.99
2022-09-27T02:11:42.420Z,99.99
2022-09-27T02:12:43.249Z,99.99
2022-09-27T02:13:43.419Z,99.99
2022-09-27T02:14:42.409Z,99.99
2022-09-27T02:15:42.467Z,99.99
2022-09-27T02:16:42.398Z,99.99
2022-09-27T02:17:43.287Z,99.99
2022-09-27T02:18:42.378Z,99.99
2022-09-27T02:19:42.378Z,99.99
2022-09-27T02:20:43.367Z,99.99
2022-09-27T02:21:43.409Z,99.99
2022-09-27T02:22:42.378Z,99.99
2022-09-27T02:23:43.227Z,99.99
2022-09-27T02:24:43.447Z,99.99
2022-09-27T02:25:42.537Z,99.99
2022-09-27T02:26:42.374Z,99.99
2022-09-27T02:27:42.755Z,99.99
2022-09-27T02:28:43.423Z,99.99
2022-09-27T02:29:42.406Z,99.99
2022-09-27T02:30:42.387Z,99.99
2022-09-27T02:31:42.987Z,99.99
2022-09-27T02:32:42.377Z,99.99
2022-09-27T02:33:42.285Z,99.99
2022-09-27T02:34:42.396Z,99.99
2022-09-27T02:35:42.271Z,99.99
2022-09-27T02:36:42.405Z,99.99
2022-09-27T02:37:42.624Z,99.99
2022-09-27T02:38:42.684Z,99.99
2022-09-27T02:39:42.635Z,99.99
2022-09-27T02:40:42.755Z,99.99
2022-09-27T02:41:42.643Z,99.99
2022-09-27T02:42:42.234Z,99.99
2022-09-27T02:43:42.282Z,99.99
2022-09-27T02:44:42.805Z,99.99
2022-09-27T02:45:42.484Z,99.99
2022-09-27T02:46:42.889Z,99.99
2022-09-27T02:47:42.481Z,99.99
2022-09-27T02:48:43.105Z,99.99
2022-09-27T02:49:42.284Z,99.99
2022-09-27T02:50:42.181Z,99.99
2022-09-27T02:51:42.166Z,99.99
2022-09-27T02:52:42.180Z,99.99
2022-09-27T02:53:42.193Z,99.99
2022-09-27T02:54:43.063Z,99.99
2022-09-27T02:55:42.961Z,99.99
2022-09-27T02:56:43.121Z,99.99
2022-09-27T02:57:42.112Z,99.99
2022-09-27T02:58:42.931Z,99.99
2022-09-27T02:59:42.111Z,99.99
2022-09-27T03:00:42.359Z,99.99
2022-09-27T03:01:43.193Z,99.99
2022-09-27T03:02:42.289Z,99.99
2022-09-27T03:03:42.980Z,99.99
2022-09-27T03:04:42.090Z,99.99
2022-09-27T03:05:42.808Z,99.99
2022-09-27T03:06:42.420Z,99.99
2022-09-27T03:07:42.050Z,99.99
2022-09-27T03:08:42.068Z,99.99
2022-09-27T03:09:42.047Z,99.99
2022-09-27T03:10:42.058Z,99.99
2022-09-27T03:11:42.041Z,99.99
2022-09-27T03:12:42.020Z,99.99
2022-09-27T03:14:01.896Z,99.99
2022-09-27T03:14:42.014Z,99.99
2022-09-27T03:15:42.065Z,99.99
2022-09-27T03:16:42.029Z,99.99
2022-09-27T03:17:41.986Z,99.99
2022-09-27T03:18:41.997Z,99.99
2022-09-27T03:19:41.985Z,99.99
2022-09-27T03:20:42.072Z,99.99
2022-09-27T03:21:41.965Z,99.99
2022-09-27T03:22:41.955Z,99.99
2022-09-27T03:23:41.975Z,99.99
2022-09-27T03:24:41.997Z,99.99
2022-09-27T03:25:41.936Z,99.99
2022-09-27T03:26:41.938Z,99.99
2022-09-27T03:27:42.005Z,99.99
2022-09-27T03:28:41.924Z,99.99
2022-09-27T03:29:42.154Z,99.99
2022-09-27T03:30:41.938Z,99.99
2022-09-27T03:31:41.904Z,99.99
2022-09-27T03:32:44.120Z,99.99
2022-09-27T03:33:41.881Z,99.99
2022-09-27T03:34:41.897Z,99.99
2022-09-27T03:35:41.881Z,99.99
2022-09-27T03:36:41.873Z,99.99
2022-09-27T03:37:41.874Z,99.99
2022-09-27T03:38:41.873Z,99.99
2022-09-27T03:39:41.844Z,99.99
2022-09-27T03:40:41.875Z,99.99
2022-09-27T03:41:41.832Z,99.99
2022-09-27T03:42:45.089Z,99.99
2022-09-27T03:43:41.847Z,99.99
2022-09-27T03:44:41.872Z,99.99
2022-09-27T03:45:41.861Z,99.99
2022-09-27T03:46:41.791Z,99.99
2022-09-27T03:47:41.802Z,99.99
2022-09-27T03:48:41.811Z,99.99
2022-09-27T03:49:41.791Z,99.99
2022-09-27T03:50:41.771Z,99.99
2022-09-27T03:51:41.772Z,99.99
2022-09-27T03:52:41.760Z,99.99
2022-09-27T03:53:41.771Z,99.99
2022-09-27T03:54:41.742Z,99.99
2022-09-27T03:55:41.740Z,99.99
2022-09-27T03:56:41.743Z,99.99
2022-09-27T03:57:41.738Z,99.99
2022-09-27T03:58:41.763Z,99.99
2022-09-27T03:59:41.743Z,99.99
2022-09-27T04:00:41.718Z,99.99
2022-09-27T04:01:41.760Z,99.99
2022-09-27T04:02:41.776Z,99.99
2022-09-27T04:03:41.734Z,99.99
2022-09-27T04:04:41.677Z,99.99
2022-09-27T04:05:41.688Z,99.99
2022-09-27T04:06:41.680Z,99.99
2022-09-27T04:07:41.678Z,99.99
2022-09-27T04:08:41.706Z,99.99
2022-09-27T04:09:44.694Z,99.99
2022-09-27T04:10:41.658Z,99.99
2022-09-27T04:11:41.655Z,99.99
2022-09-27T04:12:41.635Z,99.99
2022-09-27T04:13:41.665Z,99.99
2022-09-27T04:14:41.635Z,99.99
2022-09-27T04:15:41.605Z,99.99
2022-09-27T04:16:41.647Z,99.99
2022-09-27T04:17:41.594Z,99.99
2022-09-27T04:18:41.601Z,99.99
2022-09-27T04:19:41.715Z,99.99
2022-09-27T04:20:41.592Z,99.99
2022-09-27T04:21:41.734Z,99.99
2022-09-27T04:22:41.706Z,99.99
2022-09-27T04:23:41.577Z,99.99
2022-09-27T04:24:41.572Z,99.99
2022-09-27T04:25:41.544Z,99.99
2022-09-27T04:26:41.531Z,99.99
2022-09-27T04:27:41.534Z,99.99
2022-09-27T04:28:41.550Z,99.99
2022-09-27T04:29:41.544Z,99.99
2022-09-27T04:30:41.578Z,99.99
2022-09-27T04:31:41.502Z,99.99
2022-09-27T04:32:41.522Z,99.99
2022-09-27T04:33:41.501Z,99.99
2022-09-27T04:34:45.407Z,99.99
2022-09-27T04:35:41.475Z,99.99
2022-09-27T04:36:41.503Z,99.99
2022-09-27T04:37:41.492Z,99.99
2022-09-27T04:38:41.485Z,99.99
2022-09-27T04:39:41.450Z,99.99
2022-09-27T04:40:41.476Z,99.99
2022-09-27T04:41:41.440Z,99.99
2022-09-27T04:42:41.427Z,99.99
2022-09-27T04:43:41.430Z,99.99
2022-09-27T04:44:41.469Z,99.99
2022-09-27T04:45:41.435Z,99.99
2022-09-27T04:46:41.449Z,99.99
2022-09-27T04:47:41.391Z,99.99
2022-09-27T04:48:41.398Z,99.99
2022-09-27T04:49:41.389Z,99.99
2022-09-27T04:50:41.371Z,99.99
2022-09-27T04:51:41.900Z,99.99
2022-09-27T04:52:41.389Z,99.99
2022-09-27T04:53:41.449Z,99.99
2022-09-27T04:54:41.428Z,99.99
2022-09-27T04:55:41.719Z,99.99
2022-09-27T04:56:41.925Z,99.99
2022-09-27T04:57:41.738Z,99.99
2022-09-27T04:58:41.340Z,99.99
2022-09-27T04:59:41.350Z,99.99
2022-09-27T05:00:41.387Z,99.99
2022-09-27T05:01:41.451Z,99.99
2022-09-27T05:02:41.465Z,99.99
2022-09-27T05:03:41.557Z,99.99
2022-09-27T05:04:41.575Z,99.99
2022-09-27T05:05:41.565Z,99.99
2022-09-27T05:06:41.575Z,99.99
2022-09-27T05:07:41.575Z,99.99
2022-09-27T05:08:41.285Z,99.99
2022-09-27T05:09:41.273Z,99.99
2022-09-27T05:10:42.716Z,99.99
2022-09-27T05:11:41.246Z,99.99
2022-09-27T05:12:41.245Z,99.99
2022-09-27T05:13:41.264Z,99.99
2022-09-27T05:14:41.405Z,99.99
2022-09-27T05:15:41.245Z,99.99
2022-09-27T05:16:41.374Z,99.99
2022-09-27T05:17:41.237Z,99.99
2022-09-27T05:18:41.243Z,99.99
2022-09-27T05:19:41.190Z,99.99
2022-09-27T05:20:41.257Z,99.99
2022-09-27T05:21:41.274Z,99.99
2022-09-27T05:22:41.272Z,99.99
2022-09-27T05:23:44.666Z,99.99
2022-09-27T05:24:41.284Z,99.99
2022-09-27T05:25:41.292Z,99.99
2022-09-27T05:26:41.302Z,99.99
2022-09-27T05:27:41.151Z,99.99
2022-09-27T05:28:41.154Z,99.99
2022-09-27T05:29:41.285Z,99.99
2022-09-27T05:30:41.235Z,99.99
2022-09-27T05:31:41.360Z,99.99
2022-09-27T05:32:41.361Z,99.99
2022-09-27T05:33:41.371Z,99.99
2022-09-27T05:34:41.142Z,99.99
2022-09-27T05:35:45.373Z,99.99
2022-09-27T05:36:41.151Z,99.99
2022-09-27T05:37:41.309Z,99.99
2022-09-27T05:38:41.090Z,99.99
2022-09-27T05:39:41.179Z,99.99
2022-09-27T05:40:42.235Z,99.99
2022-09-27T05:41:41.408Z,99.99
2022-09-27T05:42:41.438Z,99.99
2022-09-27T05:43:41.431Z,99.99
2022-09-27T05:44:41.413Z,99.99
2022-09-27T05:45:41.466Z,99.99
2022-09-27T05:46:41.021Z,99.99
2022-09-27T05:47:41.438Z,99.99
2022-09-27T05:48:41.685Z,99.99
2022-09-27T05:49:41.676Z,99.99
2022-09-27T05:50:41.676Z,99.99
2022-09-27T05:51:41.070Z,99.99
2022-09-27T05:52:41.334Z,99.99
2022-09-27T05:53:41.680Z,99.99
2022-09-27T05:54:41.276Z,99.99
2022-09-27T05:55:41.105Z,99.99
2022-09-27T05:56:41.365Z,99.99
2022-09-27T05:57:40.955Z,99.99
2022-09-27T05:58:40.935Z,99.99
2022-09-27T05:59:41.394Z,99.99
2022-09-27T06:00:41.515Z,99.99
2022-09-27T06:01:40.969Z,99.99
2022-09-27T06:02:41.151Z,99.99
2022-09-27T06:03:41.334Z,99.99
2022-09-27T06:04:40.926Z,99.99
2022-09-27T06:05:40.973Z,99.99
2022-09-27T06:06:41.554Z,99.99
2022-09-27T06:07:41.784Z,99.99
2022-09-27T06:08:41.154Z,99.99
2022-09-27T06:09:41.773Z,99.99
2022-09-27T06:10:40.874Z,99.99
2022-09-27T06:11:44.430Z,99.99
2022-09-27T06:12:41.443Z,99.99
2022-09-27T06:13:40.842Z,99.99
2022-09-27T06:14:40.913Z,99.99
2022-09-27T06:15:40.822Z,99.99
2022-09-27T06:16:40.873Z,99.99
2022-09-27T06:17:41.012Z,99.99
2022-09-27T06:18:41.041Z,99.99
2022-09-27T06:19:41.026Z,99.99
2022-09-27T06:20:41.030Z,99.99
2022-09-27T06:21:41.071Z,99.99
2022-09-27T06:22:41.265Z,99.99
2022-09-27T06:23:41.263Z,99.99
2022-09-27T06:24:40.800Z,99.99
2022-09-27T06:25:41.063Z,99.99
2022-09-27T06:26:41.309Z,99.99
2022-09-27T06:27:40.879Z,99.99
2022-09-27T06:28:40.900Z,99.99
2022-09-27T06:29:40.802Z,99.99
2022-09-27T06:30:40.816Z,99.99
2022-09-27T06:31:40.918Z,99.99
2022-09-27T06:32:40.958Z,99.99
2022-09-27T06:33:40.918Z,99.99
2022-09-27T06:34:40.800Z,99.99
2022-09-27T06:35:40.738Z,99.99
2022-09-27T06:36:41.167Z,99.99
2022-09-27T06:37:41.162Z,99.99
2022-09-27T06:38:41.196Z,99.99
2022-09-27T06:39:40.657Z,99.99
2022-09-27T06:40:40.810Z,99.99
2022-09-27T06:41:40.656Z,99.99
2022-09-27T06:42:41.002Z,99.99
2022-09-27T06:43:41.376Z,99.99
2022-09-27T06:44:40.846Z,99.99
2022-09-27T06:45:41.026Z,99.99
2022-09-27T06:46:40.648Z,99.99
2022-09-27T06:47:40.625Z,99.99
2022-09-27T06:48:40.842Z,99.99
2022-09-27T06:49:41.012Z,99.99
2022-09-27T06:50:40.815Z,99.99
2022-09-27T06:51:40.621Z,99.99
2022-09-27T06:52:40.625Z,99.99
2022-09-27T06:53:40.633Z,99.99
2022-09-27T06:54:40.641Z,99.99
2022-09-27T06:55:40.684Z,99.99
2022-09-27T06:56:40.860Z,99.99
2022-09-27T06:57:42.069Z,99.99
2022-09-27T06:58:40.573Z,99.99
2022-09-27T06:59:40.672Z,99.99
2022-09-27T07:00:40.591Z,99.99
2022-09-27T07:01:41.159Z,99.99
2022-09-27T07:02:40.532Z,99.99
2022-09-27T07:03:41.128Z,99.99
2022-09-27T07:04:40.763Z,99.99
2022-09-27T07:05:41.130Z,99.99
2022-09-27T07:06:41.138Z,99.99
2022-09-27T07:07:40.470Z,99.99
2022-09-27T07:08:40.471Z,99.99
2022-09-27T07:09:40.460Z,99.99
2022-09-27T07:10:40.480Z,99.99
2022-09-27T07:11:41.430Z,99.99
2022-09-27T07:12:40.823Z,99.99
2022-09-27T07:13:40.722Z,99.99
2022-09-27T07:14:40.430Z,99.99
2022-09-27T07:15:40.430Z,99.99
2022-09-27T07:16:41.485Z,99.99
2022-09-27T07:17:40.417Z,99.99
2022-09-27T07:18:40.403Z,99.99
2022-09-27T07:19:40.390Z,99.99
2022-09-27T07:20:41.338Z,99.99
2022-09-27T07:21:41.238Z,99.99
2022-09-27T07:22:40.389Z,99.99
2022-09-27T07:23:40.358Z,99.99
2022-09-27T07:24:40.367Z,99.99
2022-09-27T07:25:41.367Z,99.99
2022-09-27T07:26:41.267Z,99.99
2022-09-27T07:27:40.347Z,99.99
2022-09-27T07:28:40.347Z,99.99
2022-09-27T07:29:40.327Z,99.99
2022-09-27T07:30:40.379Z,99.99
2022-09-27T07:31:40.334Z,99.99
2022-09-27T07:32:40.307Z,99.99
2022-09-27T07:33:43.226Z,99.99
2022-09-27T07:34:40.295Z,99.99
2022-09-27T07:35:40.295Z,99.99
2022-09-27T07:36:40.301Z,99.99
2022-09-27T07:37:40.274Z,99.99
2022-09-27T07:38:40.265Z,99.99
2022-09-27T07:39:40.324Z,99.99
2022-09-27T07:40:40.284Z,99.99
2022-09-27T07:41:40.276Z,99.99
2022-09-27T07:42:40.242Z,99.99
2022-09-27T07:43:40.244Z,99.99
2022-09-27T07:44:40.233Z,99.99
2022-09-27T07:45:40.320Z,99.99
2022-09-27T07:46:40.293Z,98.40
2022-09-27T07:47:40.213Z,98.56
2022-09-27T07:48:40.213Z,97.85
2022-09-27T07:49:40.222Z,97.54
2022-09-27T07:50:40.192Z,97.64
2022-09-27T07:51:40.193Z,98.21
2022-09-27T07:52:40.180Z,97.49
2022-09-27T07:53:40.163Z,97.80
2022-09-27T07:54:40.161Z,97.90
2022-09-27T07:55:40.151Z,97.03
2022-09-27T07:56:40.162Z,98.05
2022-09-27T07:57:40.135Z,97.58
2022-09-27T07:58:40.132Z,96.87
2022-09-27T07:59:40.241Z,97.17
2022-09-27T08:00:40.131Z,97.38
2022-09-27T08:01:40.255Z,98.20
2022-09-27T08:02:40.156Z,99.02
2022-09-27T08:03:40.091Z,98.30
2022-09-27T08:04:40.093Z,97.89
2022-09-27T08:05:40.082Z,97.94
2022-09-27T08:06:40.099Z,96.61
2022-09-27T08:07:40.069Z,97.47
2022-09-27T08:08:40.070Z,97.27
2022-09-27T08:09:40.049Z,97.98
2022-09-27T08:10:40.049Z,98.08
2022-09-27T08:11:40.059Z,97.67
2022-09-27T08:12:40.038Z,97.27
2022-09-27T08:13:40.030Z,98.39
2022-09-27T08:14:45.069Z,98.29
2022-09-27T08:15:40.010Z,97.72
2022-09-27T08:16:40.073Z,97.21
2022-09-27T08:17:39.999Z,97.52
2022-09-27T08:18:40.007Z,98.13
2022-09-27T08:19:39.989Z,96.80
2022-09-27T08:20:39.990Z,97.11
2022-09-27T08:21:39.988Z,97.00
2022-09-27T08:22:39.989Z,96.39
2022-09-27T08:23:39.998Z,96.70
2022-09-27T08:24:40.066Z,96.19
2022-09-27T08:25:40.210Z,96.39
2022-09-27T08:26:40.897Z,97.00
2022-09-27T08:27:40.019Z,97.97
2022-09-27T08:28:39.937Z,98.79
2022-09-27T08:29:39.977Z,98.38
2022-09-27T08:30:39.917Z,98.02
2022-09-27T08:31:39.977Z,98.38
2022-09-27T08:32:39.908Z,98.38
2022-09-27T08:33:41.671Z,98.58
2022-09-27T08:34:39.905Z,98.69
2022-09-27T08:35:39.888Z,98.79
2022-09-27T08:36:39.894Z,98.95
2022-09-27T08:37:40.024Z,98.74
2022-09-27T08:38:39.908Z,97.97
2022-09-27T08:39:41.259Z,98.18
2022-09-27T08:40:40.101Z,98.79
2022-09-27T08:41:39.905Z,99.15
2022-09-27T08:42:39.843Z,99.45
2022-09-27T08:43:39.825Z,99.66
2022-09-27T08:44:39.894Z,99.86
2022-09-27T08:45:39.839Z,99.99
2022-09-27T08:46:39.863Z,99.99
2022-09-27T08:47:39.803Z,99.99
2022-09-27T08:48:39.801Z,99.99
2022-09-27T08:49:39.792Z,99.99
2022-09-27T08:50:40.453Z,99.99
2022-09-27T08:51:39.881Z,99.99
2022-09-27T08:52:39.792Z,99.99
2022-09-27T08:53:39.763Z,99.99
2022-09-27T08:54:39.762Z,99.91
2022-09-27T08:55:39.750Z,99.20
2022-09-27T08:56:39.759Z,99.05
2022-09-27T08:57:39.751Z,99.21
2022-09-27T08:58:39.731Z,98.19
2022-09-27T08:59:39.751Z,97.27
2022-09-27T09:00:39.799Z,96.30
2022-09-27T09:01:39.791Z,96.61
2022-09-27T09:02:39.730Z,95.59
2022-09-27T09:03:39.699Z,95.79
2022-09-27T09:04:39.691Z,95.48
2022-09-27T09:05:39.680Z,94.87
2022-09-27T09:06:39.689Z,95.75
2022-09-27T09:07:39.709Z,96.26
2022-09-27T09:08:42.943Z,95.85
2022-09-27T09:09:39.659Z,94.52
2022-09-27T09:10:39.657Z,93.91
2022-09-27T09:11:39.971Z,95.13
2022-09-27T09:12:39.673Z,94.32
2022-09-27T09:13:39.630Z,92.88
2022-09-27T09:14:40.111Z,92.94
2022-09-27T09:15:39.621Z,92.54
2022-09-27T09:16:39.663Z,92.49
2022-09-27T09:17:39.620Z,92.19
2022-09-27T09:18:39.658Z,92.49
2022-09-27T09:19:39.597Z,91.83
2022-09-27T09:20:39.606Z,91.85
2022-09-27T09:21:39.585Z,89.51
2022-09-27T09:22:39.590Z,89.45
2022-09-27T09:23:39.565Z,91.18
2022-09-27T09:24:39.567Z,90.00
2022-09-27T09:25:39.551Z,91.57
2022-09-27T09:26:39.557Z,90.39
2022-09-27T09:27:40.114Z,91.00
2022-09-27T09:28:39.586Z,91.52
2022-09-27T09:29:40.106Z,92.23
2022-09-27T09:30:39.526Z,91.25
2022-09-27T09:31:39.537Z,92.33
2022-09-27T09:32:39.535Z,92.13
2022-09-27T09:33:39.507Z,92.43
2022-09-27T09:34:39.497Z,92.27
2022-09-27T09:35:39.484Z,92.88
2022-09-27T09:36:39.525Z,92.47
2022-09-27T09:37:39.504Z,91.76
2022-09-27T09:38:39.544Z,92.58
2022-09-27T09:39:39.455Z,92.17
2022-09-27T09:40:39.488Z,91.31
2022-09-27T09:41:39.565Z,91.61
2022-09-27T09:42:39.573Z,90.86
2022-09-27T09:43:39.680Z,89.32
2022-09-27T09:44:39.483Z,88.04
2022-09-27T09:45:39.449Z,89.26
2022-09-27T09:46:43.441Z,88.61
2022-09-27T09:47:39.424Z,88.20
2022-09-27T09:48:39.407Z,89.02
2022-09-27T09:49:39.822Z,89.63
2022-09-27T09:50:39.732Z,88.98
2022-09-27T09:51:39.427Z,88.20
2022-09-27T09:52:39.841Z,88.20
2022-09-27T09:53:39.441Z,87.90
2022-09-27T09:54:39.452Z,87.73
2022-09-27T09:55:39.351Z,87.79
2022-09-27T09:56:39.562Z,88.10
2022-09-27T09:57:39.571Z,87.23
2022-09-27T09:58:39.680Z,88.85
2022-09-27T09:59:39.400Z,88.92
2022-09-27T10:00:39.721Z,88.82
2022-09-27T10:01:39.328Z,89.06
2022-09-27T10:02:39.810Z,89.43
2022-09-27T10:03:39.912Z,89.12
2022-09-27T10:04:39.925Z,89.23
2022-09-27T10:05:39.831Z,88.00
2022-09-27T10:06:39.944Z,88.71
2022-09-27T10:07:39.942Z,88.24
2022-09-27T10:08:39.960Z,88.14
2022-09-27T10:09:39.959Z,88.00
2022-09-27T10:10:39.259Z,87.38
2022-09-27T10:11:39.257Z,87.18
2022-09-27T10:12:39.267Z,86.41
2022-09-27T10:13:39.276Z,86.61
2022-09-27T10:14:39.481Z,86.91
2022-09-27T10:15:39.348Z,87.12
2022-09-27T10:16:39.289Z,86.47
2022-09-27T10:17:39.409Z,86.02
2022-09-27T10:18:39.475Z,85.24
2022-09-27T10:19:39.619Z,85.92
2022-09-27T10:20:39.625Z,86.02
2022-09-27T10:21:39.628Z,85.35
2022-09-27T10:22:39.742Z,86.36
2022-09-27T10:23:39.227Z,85.75
2022-09-27T10:24:39.156Z,86.57
2022-09-27T10:25:39.251Z,87.38
2022-09-27T10:26:39.360Z,87.29
2022-09-27T10:27:39.157Z,87.70
2022-09-27T10:28:39.161Z,87.29
2022-09-27T10:29:39.269Z,86.98
2022-09-27T10:30:39.166Z,86.36
2022-09-27T10:31:39.414Z,86.88
2022-09-27T10:32:39.301Z,86.33
2022-09-27T10:33:39.105Z,86.94
2022-09-27T10:34:39.400Z,86.63
2022-09-27T10:35:39.093Z,86.12
2022-09-27T10:36:39.524Z,86.57
2022-09-27T10:37:39.534Z,85.86
2022-09-27T10:38:39.254Z,85.96
2022-09-27T10:39:39.636Z,86.61
2022-09-27T10:40:39.189Z,87.23
2022-09-27T10:41:39.754Z,87.53
2022-09-27T10:42:39.095Z,87.02
2022-09-27T10:43:39.063Z,88.00
2022-09-27T10:44:39.064Z,87.70
2022-09-27T10:45:39.057Z,87.59
2022-09-27T10:46:39.995Z,86.98
2022-09-27T10:47:39.898Z,86.67
2022-09-27T10:48:40.012Z,87.79
2022-09-27T10:49:39.003Z,87.18
2022-09-27T10:50:50.317Z,86.57
2022-09-27T10:51:39.116Z,86.67
2022-09-27T10:52:39.923Z,86.36
2022-09-27T10:53:39.831Z,86.30
2022-09-27T10:54:39.992Z,86.91
2022-09-27T10:55:39.531Z,87.08
2022-09-27T10:56:39.712Z,87.29
2022-09-27T10:57:44.310Z,86.06
2022-09-27T10:58:38.949Z,85.65
2022-09-27T10:59:39.270Z,85.89
2022-09-27T11:00:39.985Z,86.00
2022-09-27T11:01:39.832Z,86.71
2022-09-27T11:02:39.744Z,86.71
2022-09-27T11:03:38.921Z,86.67
2022-09-27T11:04:38.982Z,86.06
2022-09-27T11:05:38.890Z,85.86
2022-09-27T11:06:38.930Z,86.06
2022-09-27T11:07:38.931Z,85.65
2022-09-27T11:08:38.893Z,86.16
2022-09-27T11:09:38.862Z,85.35
2022-09-27T11:10:38.849Z,85.65
2022-09-27T11:11:38.848Z,85.65
2022-09-27T11:12:38.872Z,86.06
2022-09-27T11:13:38.849Z,86.77
2022-09-27T11:14:38.849Z,85.55
2022-09-27T11:15:38.818Z,85.89
2022-09-27T11:16:38.864Z,85.86
2022-09-27T11:17:38.807Z,86.57
2022-09-27T11:18:38.988Z,85.30
2022-09-27T11:19:38.997Z,85.21
2022-09-27T11:20:38.808Z,86.08
2022-09-27T11:21:38.786Z,83.84
2022-09-27T11:22:38.788Z,83.80
2022-09-27T11:23:38.857Z,83.39
2022-09-27T11:24:38.759Z,82.29
2022-09-27T11:25:38.747Z,81.17
2022-09-27T11:26:38.738Z,80.50
2022-09-27T11:27:38.754Z,81.76
2022-09-27T11:28:38.758Z,82.68
2022-09-27T11:29:38.736Z,83.09
2022-09-27T11:30:39.485Z,83.23
2022-09-27T11:31:38.991Z,83.02
2022-09-27T11:32:38.695Z,82.45
2022-09-27T11:33:38.709Z,83.06
2022-09-27T11:34:38.995Z,83.40
2022-09-27T11:35:39.521Z,82.89
2022-09-27T11:36:38.675Z,84.12
2022-09-27T11:37:39.404Z,84.53
2022-09-27T11:38:52.789Z,83.30
2022-09-27T11:39:38.655Z,83.78
2022-09-27T11:40:39.700Z,82.55
2022-09-27T11:41:38.643Z,83.26
2022-09-27T11:42:38.646Z,82.96
2022-09-27T11:43:38.653Z,83.26
2022-09-27T11:44:38.664Z,83.87
2022-09-27T11:46:03.196Z,83.51
2022-09-27T11:46:41.972Z,83.51
2022-09-27T11:47:38.690Z,84.80
2022-09-27T11:48:38.592Z,84.59
2022-09-27T11:49:38.603Z,84.90
2022-09-27T11:50:38.580Z,84.08
2022-09-27T11:51:38.580Z,83.87
2022-09-27T11:52:38.563Z,83.98
2022-09-27T11:53:38.562Z,83.10
2022-09-27T11:54:38.562Z,83.81
2022-09-27T11:55:38.833Z,84.42
2022-09-27T11:56:38.545Z,84.42
2022-09-27T11:57:38.637Z,83.20
2022-09-27T11:58:38.534Z,82.69
2022-09-27T11:59:38.570Z,83.40
2022-09-27T12:00:38.516Z,82.69
2022-09-27T12:01:38.559Z,81.77
2022-09-27T12:02:38.526Z,82.89
2022-09-27T12:03:38.533Z,83.20
2022-09-27T12:04:38.500Z,83.10
2022-09-27T12:05:38.479Z,83.61
2022-09-27T12:06:38.473Z,83.30
2022-09-27T12:07:38.472Z,83.06
2022-09-27T12:08:38.561Z,83.87
2022-09-27T12:09:38.560Z,83.06
2022-09-27T12:10:38.471Z,83.26
2022-09-27T12:11:38.448Z,83.53
2022-09-27T12:12:38.430Z,82.45
2022-09-27T12:13:38.448Z,83.98
2022-09-27T12:14:38.450Z,84.08
2022-09-27T12:15:38.476Z,84.18
2022-09-27T12:16:38.399Z,83.78
2022-09-27T12:17:38.399Z,84.08
2022-09-27T12:18:38.388Z,84.39
2022-09-27T12:19:38.417Z,85.51
2022-09-27T12:20:38.377Z,84.90
2022-09-27T12:21:38.377Z,85.10
2022-09-27T12:22:58.124Z,85.00
2022-09-27T12:23:38.378Z,85.21
2022-09-27T12:24:38.349Z,84.28
2022-09-27T12:25:38.345Z,84.90
2022-09-27T12:26:38.334Z,84.80
2022-09-27T12:27:38.338Z,85.30
2022-09-27T12:28:38.366Z,84.66
2022-09-27T12:29:38.356Z,85.06
2022-09-27T12:30:38.306Z,84.96
2022-09-27T12:31:38.367Z,84.20
2022-09-27T12:32:38.296Z,84.11
2022-09-27T12:33:38.367Z,83.18
2022-09-27T12:34:38.276Z,83.09
2022-09-27T12:35:38.283Z,84.00
2022-09-27T12:37:39.326Z,82.88
2022-09-27T12:38:38.317Z,82.84
2022-09-27T12:39:38.276Z,82.23
2022-09-27T12:40:38.289Z,82.13
2022-09-27T12:41:38.246Z,81.52
2022-09-27T12:42:38.224Z,82.40
2022-09-27T12:43:38.229Z,82.87
2022-09-27T12:44:38.247Z,81.13
2022-09-27T12:45:38.214Z,81.13
2022-09-27T12:46:38.257Z,80.08
2022-09-27T12:47:38.204Z,80.59
2022-09-27T12:48:38.185Z,79.81
2022-09-27T12:49:38.436Z,81.65
2022-09-27T12:50:38.174Z,82.46
2022-09-27T12:51:38.176Z,82.66
2022-09-27T12:52:38.164Z,80.69
2022-09-27T12:53:38.313Z,80.29